createdAt,value
2022-08-31T00:00:09.393Z,7.50
2022-08-31T00:02:54.512Z,8.25
2022-08-31T00:05:22.807Z,6.75
2022-08-31T00:07:50.610Z,7.25
2022-08-31T00:10:32.546Z,6.75
2022-08-31T00:13:04.814Z,7.00
2022-08-31T00:15:34.914Z,10.00
2022-08-31T00:18:02.737Z,8.25
2022-08-31T00:20:33.163Z,6.50
2022-08-31T00:23:02.559Z,5.25
2022-08-31T00:25:31.972Z,7.00
2022-08-31T00:27:59.823Z,7.50
2022-08-31T00:30:27.966Z,6.75
2022-08-31T00:32:57.105Z,7.00
2022-08-31T00:35:26.787Z,6.00
2022-08-31T00:37:54.683Z,7.25
2022-08-31T00:40:22.955Z,7.00
2022-08-31T00:42:52.354Z,7.00
2022-08-31T00:45:20.647Z,6.25
2022-08-31T00:47:48.695Z,6.00
2022-08-31T00:50:17.329Z,6.25
2022-08-31T00:52:47.227Z,7.25
2022-08-31T00:55:15.954Z,6.00
2022-08-31T00:57:44.707Z,7.00
2022-08-31T01:00:25.579Z,6.00
2022-08-31T01:02:53.507Z,6.00
2022-08-31T01:05:21.881Z,5.75
2022-08-31T01:07:49.760Z,5.75
2022-08-31T01:10:18.025Z,6.75
2022-08-31T01:12:46.230Z,4.00
2022-08-31T01:15:15.504Z,8.25
2022-08-31T01:17:44.074Z,7.50
2022-08-31T01:20:15.311Z,6.00
2022-08-31T01:22:46.128Z,11.75
2022-08-31T01:25:15.281Z,7.00
2022-08-31T01:27:43.464Z,6.00
2022-08-31T01:30:13.048Z,7.00
2022-08-31T01:32:41.193Z,9.75
2022-08-31T01:35:11.281Z,7.00
2022-08-31T01:37:39.531Z,9.00
2022-08-31T01:40:08.571Z,6.00
2022-08-31T01:42:38.153Z,6.00
2022-08-31T01:45:06.773Z,8.50
2022-08-31T01:47:34.599Z,6.50
2022-08-31T01:50:02.573Z,10.00
2022-08-31T01:52:30.781Z,8.00
2022-08-31T01:54:58.590Z,7.00
2022-08-31T01:57:34.233Z,9.50
2022-08-31T02:00:04.911Z,6.75
2022-08-31T02:02:33.097Z,9.50
2022-08-31T02:05:01.016Z,7.50
2022-08-31T02:07:28.868Z,4.00
2022-08-31T02:09:56.967Z,6.25
2022-08-31T02:12:24.824Z,6.75
2022-08-31T02:14:52.837Z,7.75
2022-08-31T02:17:22.150Z,7.50
2022-08-31T02:19:50.041Z,8.00
2022-08-31T02:22:26.858Z,6.00
2022-08-31T02:24:54.722Z,10.00
2022-08-31T02:27:22.845Z,7.00
2022-08-31T02:29:50.663Z,8.50
2022-08-31T02:32:20.198Z,9.50
2022-08-31T02:34:49.840Z,8.00
2022-08-31T02:37:17.689Z,5.00
2022-08-31T02:39:48.669Z,9.75
2022-08-31T02:42:18.467Z,8.50
2022-08-31T02:44:46.391Z,9.50
2022-08-31T02:47:14.161Z,10.25
2022-08-31T02:49:42.023Z,6.25
2022-08-31T02:52:11.306Z,7.00
2022-08-31T02:54:39.173Z,4.00
2022-08-31T02:57:07.429Z,7.00
2022-08-31T02:59:35.211Z,6.50
2022-08-31T03:02:03.185Z,10.50
2022-08-31T03:04:31.407Z,8.00
2022-08-31T03:06:59.271Z,7.00
2022-08-31T03:09:28.545Z,7.00
2022-08-31T03:11:56.311Z,9.25
2022-08-31T03:14:24.204Z,9.00
2022-08-31T03:16:52.101Z,6.75
2022-08-31T03:19:20.754Z,6.00
2022-08-31T03:21:48.673Z,7.00
2022-08-31T03:24:27.099Z,7.75
2022-08-31T03:26:57.092Z,9.00
2022-08-31T03:29:24.922Z,9.50
2022-08-31T03:31:52.781Z,7.00
2022-08-31T03:34:20.911Z,7.00
2022-08-31T03:36:48.751Z,8.50
2022-08-31T03:39:16.564Z,10.00
2022-08-31T03:41:44.847Z,9.75
2022-08-31T03:44:14.064Z,6.75
2022-08-31T03:46:45.441Z,7.50
2022-08-31T03:49:13.957Z,8.00
2022-08-31T03:51:41.808Z,7.00
2022-08-31T03:54:10.863Z,10.50
2022-08-31T03:56:39.157Z,13.25
2022-08-31T03:59:07.850Z,13.00
2022-08-31T04:01:37.732Z,10.00
2022-08-31T04:04:07.474Z,9.00
2022-08-31T04:06:35.628Z,11.50
2022-08-31T04:09:03.447Z,9.00
2022-08-31T04:11:45.152Z,6.00
2022-08-31T04:14:15.607Z,11.25
2022-08-31T04:16:45.018Z,11.00
2022-08-31T04:19:16.012Z,7.50
2022-08-31T04:21:45.086Z,6.00
2022-08-31T04:24:12.931Z,9.00
2022-08-31T04:26:41.670Z,11.50
2022-08-31T04:29:13.432Z,5.50
2022-08-31T04:31:41.582Z,10.75
2022-08-31T04:34:10.861Z,12.00
2022-08-31T04:36:38.759Z,10.00
2022-08-31T04:39:06.882Z,10.50
2022-08-31T04:41:36.072Z,7.80
2022-08-31T04:44:04.933Z,10.50
2022-08-31T04:46:33.561Z,12.00
2022-08-31T04:49:01.358Z,12.00
2022-08-31T04:51:31.711Z,10.00
2022-08-31T04:53:59.611Z,9.50
2022-08-31T04:56:28.329Z,6.00
2022-08-31T04:58:58.010Z,5.00
2022-08-31T05:01:36.229Z,9.00
2022-08-31T05:04:10.622Z,8.00
2022-08-31T05:06:40.963Z,8.50
2022-08-31T05:09:10.219Z,9.25
2022-08-31T05:11:38.091Z,9.50
2022-08-31T05:14:06.689Z,10.00
2022-08-31T05:16:35.079Z,10.50
2022-08-31T05:19:03.014Z,11.50
2022-08-31T05:21:32.141Z,10.50
2022-08-31T05:24:02.428Z,9.25
2022-08-31T05:26:31.170Z,10.80
2022-08-31T05:28:59.277Z,9.00
2022-08-31T05:31:30.144Z,9.00
2022-08-31T05:33:58.156Z,9.50
2022-08-31T05:36:26.227Z,9.00
2022-08-31T05:38:57.687Z,4.40
2022-08-31T05:41:30.757Z,7.00
2022-08-31T05:43:58.851Z,10.00
2022-08-31T05:46:28.336Z,7.00
2022-08-31T05:48:56.702Z,9.75
2022-08-31T05:51:24.731Z,9.20
2022-08-31T05:53:52.756Z,10.40
2022-08-31T05:56:22.030Z,7.40
2022-08-31T05:58:51.980Z,10.60
2022-08-31T06:01:21.296Z,10.40
2022-08-31T06:03:49.907Z,9.60
2022-08-31T06:06:17.864Z,9.40
2022-08-31T06:08:45.935Z,9.40
2022-08-31T06:11:19.254Z,7.00
2022-08-31T06:13:47.479Z,13.00
2022-08-31T06:16:17.742Z,8.60
2022-08-31T06:18:50.941Z,9.00
2022-08-31T06:21:21.090Z,9.00
2022-08-31T06:23:49.675Z,8.80
2022-08-31T06:26:18.323Z,10.60
2022-08-31T06:28:47.460Z,11.40
2022-08-31T06:31:18.536Z,8.50
2022-08-31T06:33:47.494Z,9.00
2022-08-31T06:36:16.775Z,8.00
2022-08-31T06:38:51.247Z,9.00
2022-08-31T06:41:24.855Z,8.00
2022-08-31T06:43:53.222Z,9.00
2022-08-31T06:46:23.052Z,7.50
2022-08-31T06:48:51.730Z,12.00
2022-08-31T06:51:19.580Z,10.50
2022-08-31T06:53:47.505Z,9.75
2022-08-31T06:56:20.909Z,15.00
2022-08-31T06:58:49.412Z,15.00
2022-08-31T07:01:34.846Z,10.50
2022-08-31T07:04:06.196Z,12.50
2022-08-31T07:06:36.321Z,12.25
2022-08-31T07:09:06.422Z,12.75
2022-08-31T07:11:35.816Z,12.00
2022-08-31T07:14:03.969Z,11.25
2022-08-31T07:16:33.345Z,9.25
2022-08-31T07:19:04.085Z,6.50
2022-08-31T07:21:32.854Z,14.50
2022-08-31T07:24:02.014Z,12.00
2022-08-31T07:26:35.760Z,13.00
2022-08-31T07:29:06.768Z,10.00
2022-08-31T07:31:40.391Z,10.75
2022-08-31T07:34:11.024Z,12.75
2022-08-31T07:36:59.158Z,10.00
2022-08-31T07:39:45.010Z,13.00
2022-08-31T07:42:13.250Z,9.50
2022-08-31T07:44:42.499Z,14.50
2022-08-31T07:47:30.629Z,12.00
2022-08-31T07:50:17.075Z,6.50
2022-08-31T07:52:51.801Z,10.00
2022-08-31T07:55:20.242Z,12.25
2022-08-31T07:57:52.343Z,11.00
2022-08-31T08:00:21.514Z,14.25
2022-08-31T08:02:53.059Z,5.50
2022-08-31T08:05:23.561Z,11.00
2022-08-31T08:07:56.859Z,12.00
2022-08-31T08:10:26.327Z,7.25
2022-08-31T08:13:00.783Z,9.00
2022-08-31T08:15:33.623Z,8.00
2022-08-31T08:18:05.513Z,9.50
2022-08-31T08:20:37.678Z,12.00
2022-08-31T08:23:11.579Z,9.25
2022-08-31T08:25:43.339Z,11.00
2022-08-31T08:28:37.981Z,11.00
2022-08-31T08:31:09.498Z,13.75
2022-08-31T08:33:44.625Z,11.00
2022-08-31T08:36:18.357Z,11.75
2022-08-31T08:38:47.458Z,12.25
2022-08-31T08:41:16.805Z,8.75
2022-08-31T08:43:49.998Z,9.00
2022-08-31T08:46:34.783Z,9.00
2022-08-31T08:49:16.526Z,9.00
2022-08-31T08:51:46.831Z,8.50
2022-08-31T08:54:26.325Z,12.50
2022-08-31T08:56:54.079Z,9.50
2022-08-31T08:59:21.922Z,11.00
2022-08-31T09:01:51.129Z,6.75
2022-08-31T09:04:41.498Z,11.75
2022-08-31T09:07:21.006Z,9.50
2022-08-31T09:09:50.364Z,12.75
2022-08-31T09:12:25.878Z,7.00
2022-08-31T09:15:08.074Z,9.00
2022-08-31T09:17:40.085Z,9.75
2022-08-31T09:20:12.845Z,11.00
2022-08-31T09:22:47.282Z,8.50
2022-08-31T09:25:17.197Z,9.25
2022-08-31T09:27:48.100Z,12.50
2022-08-31T09:30:18.722Z,9.50
2022-08-31T09:32:57.763Z,8.00
2022-08-31T09:35:30.853Z,13.00
2022-08-31T09:38:00.072Z,13.25
2022-08-31T09:40:36.380Z,13.50
2022-08-31T09:43:06.578Z,12.50
2022-08-31T09:45:41.234Z,10.00
2022-08-31T09:48:10.253Z,15.75
2022-08-31T09:50:45.217Z,14.50
2022-08-31T09:53:33.690Z,10.75
2022-08-31T09:56:14.392Z,9.00
2022-08-31T09:58:50.413Z,10.25
2022-08-31T10:01:23.944Z,8.50
2022-08-31T10:03:52.926Z,15.00
2022-08-31T10:06:30.317Z,12.75
2022-08-31T10:08:59.690Z,10.00
2022-08-31T10:11:31.048Z,13.00
2022-08-31T10:14:04.966Z,9.00
2022-08-31T10:16:34.684Z,9.75
2022-08-31T10:19:04.703Z,11.00
2022-08-31T10:21:40.693Z,9.00
2022-08-31T10:24:21.020Z,13.00
2022-08-31T10:26:51.680Z,10.50
2022-08-31T10:29:27.126Z,10.75
2022-08-31T10:31:56.171Z,11.75
2022-08-31T10:34:42.847Z,11.25
2022-08-31T10:37:13.592Z,9.50
2022-08-31T10:39:44.948Z,12.50
2022-08-31T10:42:15.649Z,7.50
2022-08-31T10:44:52.357Z,12.00
2022-08-31T10:47:32.527Z,10.50
2022-08-31T10:50:03.184Z,10.25
2022-08-31T10:52:34.378Z,6.75
2022-08-31T10:55:07.512Z,11.50
2022-08-31T10:57:39.879Z,10.50
2022-08-31T11:00:09.695Z,11.75
2022-08-31T11:02:43.616Z,11.75
2022-08-31T11:05:27.024Z,12.25
2022-08-31T11:07:59.533Z,8.50
2022-08-31T11:10:29.560Z,13.00
2022-08-31T11:13:01.025Z,11.25
2022-08-31T11:15:59.074Z,12.25
2022-08-31T11:19:11.078Z,9.00
2022-08-31T11:22:09.885Z,10.75
2022-08-31T11:25:01.739Z,9.75
2022-08-31T11:27:33.521Z,13.75
2022-08-31T11:30:08.215Z,11.00
2022-08-31T11:32:37.944Z,12.50
2022-08-31T11:35:13.795Z,17.50
2022-08-31T11:37:56.152Z,10.75
2022-08-31T11:41:00.636Z,12.50
2022-08-31T11:43:49.032Z,12.25
2022-08-31T11:47:02.256Z,10.75
2022-08-31T11:49:42.324Z,12.75
2022-08-31T11:52:14.737Z,10.00
2022-08-31T11:55:11.398Z,11.75
2022-08-31T11:58:11.483Z,9.25
2022-08-31T12:00:51.940Z,11.50
2022-08-31T12:03:44.282Z,10.25
2022-08-31T12:06:13.284Z,11.00
2022-08-31T12:08:54.704Z,14.25
2022-08-31T12:11:31.445Z,15.00
2022-08-31T12:14:02.796Z,7.50
2022-08-31T12:16:47.048Z,11.00
2022-08-31T12:19:52.558Z,11.25
2022-08-31T12:23:09.535Z,11.75
2022-08-31T12:25:42.995Z,10.25
2022-08-31T12:28:14.324Z,8.40
2022-08-31T12:30:50.564Z,10.00
2022-08-31T12:33:19.641Z,10.00
2022-08-31T12:35:49.672Z,12.50
2022-08-31T12:38:21.431Z,10.00
2022-08-31T12:40:53.567Z,11.50
2022-08-31T12:43:22.777Z,9.20
2022-08-31T12:46:23.227Z,9.25
2022-08-31T12:49:26.114Z,10.40
2022-08-31T12:51:58.594Z,9.80
2022-08-31T12:55:09.075Z,7.00
2022-08-31T12:57:58.948Z,11.00
2022-08-31T13:00:27.822Z,9.80
2022-08-31T13:02:59.230Z,11.00
2022-08-31T13:05:29.174Z,6.80
2022-08-31T13:07:57.010Z,8.20
2022-08-31T13:10:33.666Z,7.60
2022-08-31T13:13:02.874Z,10.80
2022-08-31T13:15:37.294Z,7.25
2022-08-31T13:18:12.009Z,9.50
2022-08-31T13:20:43.372Z,11.75
2022-08-31T13:23:13.237Z,11.25
2022-08-31T13:25:41.219Z,9.00
2022-08-31T13:28:26.246Z,11.25
2022-08-31T13:31:02.808Z,11.50
2022-08-31T13:33:34.967Z,11.00
2022-08-31T13:36:05.426Z,9.50
2022-08-31T13:38:43.347Z,10.75
2022-08-31T13:41:18.279Z,10.25
2022-08-31T13:43:59.021Z,10.00
2022-08-31T13:46:42.025Z,9.50
2022-08-31T13:49:26.272Z,11.00
2022-08-31T13:51:54.139Z,7.50
2022-08-31T13:54:29.260Z,10.00
2022-08-31T13:56:58.889Z,10.00
2022-08-31T14:00:07.624Z,11.00
2022-08-31T14:02:39.587Z,10.75
2022-08-31T14:05:13.071Z,10.00
2022-08-31T14:08:10.262Z,12.00
2022-08-31T14:10:52.035Z,11.50
2022-08-31T14:13:21.656Z,14.75
2022-08-31T14:15:56.743Z,12.00
2022-08-31T14:18:27.909Z,14.25
2022-08-31T14:21:28.260Z,11.75
2022-08-31T14:24:01.555Z,11.50
2022-08-31T14:26:32.217Z,13.25
2022-08-31T14:29:01.428Z,12.00
2022-08-31T14:31:32.793Z,11.50
2022-08-31T14:34:24.194Z,11.25
2022-08-31T14:36:55.848Z,12.00
2022-08-31T14:39:26.596Z,11.50
2022-08-31T14:41:55.400Z,8.50
2022-08-31T14:44:25.747Z,10.50
2022-08-31T14:46:53.973Z,9.25
2022-08-31T14:49:22.087Z,10.50
2022-08-31T14:51:49.900Z,11.75
2022-08-31T14:54:21.456Z,10.50
2022-08-31T14:57:07.729Z,8.25
2022-08-31T14:59:36.147Z,10.00
2022-08-31T15:02:04.116Z,10.75
2022-08-31T15:04:33.716Z,9.50
2022-08-31T15:07:09.575Z,10.00
2022-08-31T15:09:43.105Z,10.25
2022-08-31T15:12:14.786Z,10.25
2022-08-31T15:14:44.913Z,10.50
2022-08-31T15:17:19.010Z,11.00
2022-08-31T15:19:50.326Z,7.00
2022-08-31T15:22:18.991Z,11.00
2022-08-31T15:24:49.984Z,7.50
2022-08-31T15:27:17.907Z,8.25
2022-08-31T15:29:46.726Z,12.50
2022-08-31T15:32:16.469Z,8.00
2022-08-31T15:34:46.011Z,7.50
2022-08-31T15:37:13.912Z,8.50
2022-08-31T15:39:43.433Z,8.50
2022-08-31T15:42:13.717Z,10.00
2022-08-31T15:44:42.724Z,8.25
2022-08-31T15:47:31.418Z,9.50
2022-08-31T15:49:59.464Z,9.50
2022-08-31T15:52:28.182Z,13.25
2022-08-31T15:54:57.249Z,10.25
2022-08-31T15:57:26.555Z,8.25
2022-08-31T15:59:54.434Z,11.00
2022-08-31T16:02:22.851Z,10.25
2022-08-31T16:04:51.397Z,10.50
2022-08-31T16:07:22.092Z,10.00
2022-08-31T16:09:49.990Z,9.75
2022-08-31T16:12:18.771Z,8.25
2022-08-31T16:14:51.233Z,7.25
2022-08-31T16:17:23.504Z,8.25
2022-08-31T16:19:56.507Z,8.25
2022-08-31T16:22:30.771Z,7.50
2022-08-31T16:25:00.195Z,8.25
2022-08-31T16:27:28.326Z,7.00
2022-08-31T16:29:58.325Z,7.00
2022-08-31T16:32:28.611Z,8.25
2022-08-31T16:35:00.359Z,7.00
2022-08-31T16:37:28.382Z,7.00
2022-08-31T16:39:56.193Z,7.00
2022-08-31T16:42:24.144Z,8.50
2022-08-31T16:44:52.114Z,5.25
2022-08-31T16:47:21.830Z,6.50
2022-08-31T16:49:48.767Z,7.25
2022-08-31T16:52:21.261Z,8.75
2022-08-31T16:54:53.564Z,9.75
2022-08-31T16:57:39.708Z,4.50
2022-08-31T17:00:10.362Z,9.00
2022-08-31T17:02:41.864Z,7.00
2022-08-31T17:05:09.845Z,3.00
2022-08-31T17:07:42.678Z,8.50
2022-08-31T17:10:11.178Z,6.25
2022-08-31T17:12:42.041Z,7.00
2022-08-31T17:15:12.201Z,8.33
2022-08-31T17:17:42.302Z,9.75
2022-08-31T17:20:13.165Z,6.00
2022-08-31T17:22:41.053Z,8.25
2022-08-31T17:25:09.662Z,6.75
2022-08-31T17:27:37.768Z,7.25
2022-08-31T17:30:07.372Z,5.25
2022-08-31T17:32:44.643Z,8.75
2022-08-31T17:35:17.509Z,5.75
2022-08-31T17:37:51.225Z,5.25
2022-08-31T17:40:19.514Z,5.25
2022-08-31T17:42:48.455Z,5.25
2022-08-31T17:45:17.539Z,5.50
2022-08-31T17:47:45.326Z,4.75
2022-08-31T17:50:17.724Z,6.00
2022-08-31T17:52:47.460Z,6.00
2022-08-31T17:55:15.317Z,2.00
2022-08-31T17:57:44.227Z,8.25
2022-08-31T18:00:14.670Z,4.00
2022-08-31T18:02:42.631Z,9.00
2022-08-31T18:05:12.165Z,8.00
2022-08-31T18:07:41.805Z,5.50
2022-08-31T18:10:10.879Z,5.50
2022-08-31T18:12:41.179Z,7.50
2022-08-31T18:15:10.517Z,5.00
2022-08-31T18:17:38.417Z,5.00
2022-08-31T18:20:06.948Z,6.00
2022-08-31T18:22:34.821Z,5.00
2022-08-31T18:25:04.693Z,5.50
2022-08-31T18:27:32.545Z,5.75
2022-08-31T18:30:01.128Z,4.00
2022-08-31T18:32:36.251Z,5.50
2022-08-31T18:35:05.913Z,4.25
2022-08-31T18:37:34.865Z,4.00
2022-08-31T18:40:22.261Z,4.00
2022-08-31T18:43:07.454Z,7.50
2022-08-31T18:45:39.467Z,5.00
2022-08-31T18:48:24.422Z,5.50
2022-08-31T18:50:53.798Z,6.00
2022-08-31T18:53:27.641Z,4.75
2022-08-31T18:55:59.822Z,7.75
2022-08-31T18:58:28.787Z,8.75
2022-08-31T19:00:57.555Z,5.25
2022-08-31T19:03:27.416Z,4.50
2022-08-31T19:05:56.088Z,5.00
2022-08-31T19:08:24.058Z,6.50
2022-08-31T19:10:51.889Z,7.00
2022-08-31T19:13:21.702Z,4.50
2022-08-31T19:15:49.804Z,5.00
2022-08-31T19:18:18.218Z,5.00
2022-08-31T19:20:46.148Z,5.00
2022-08-31T19:23:18.815Z,6.50
2022-08-31T19:25:48.669Z,7.00
2022-08-31T19:28:16.536Z,5.50
2022-08-31T19:30:48.720Z,5.50
2022-08-31T19:33:16.915Z,6.00
2022-08-31T19:35:45.379Z,8.00
2022-08-31T19:38:14.410Z,6.50
2022-08-31T19:40:42.404Z,5.00
2022-08-31T19:46:15.969Z,4.00
2022-08-31T19:48:44.666Z,5.00
2022-08-31T19:51:14.259Z,5.00
2022-08-31T19:53:44.543Z,4.00
2022-08-31T19:56:17.661Z,5.00
2022-08-31T19:58:47.025Z,5.00
2022-08-31T20:01:18.311Z,4.75
2022-08-31T20:03:48.084Z,5.50
2022-08-31T20:06:17.209Z,10.00
2022-08-31T20:08:45.031Z,14.25
2022-08-31T20:11:17.043Z,7.00
2022-08-31T20:13:48.917Z,5.00
2022-08-31T20:16:18.413Z,5.00
2022-08-31T20:18:48.629Z,5.00
2022-08-31T20:21:18.782Z,4.25
2022-08-31T20:23:47.854Z,2.50
2022-08-31T20:26:15.878Z,4.50
2022-08-31T20:28:43.694Z,5.00
2022-08-31T20:31:12.330Z,5.00
2022-08-31T20:33:43.228Z,6.25
2022-08-31T20:36:18.305Z,5.50
2022-08-31T20:38:46.610Z,5.25
2022-08-31T20:41:14.634Z,5.00
2022-08-31T20:43:44.658Z,5.00
2022-08-31T20:46:33.525Z,4.00
2022-08-31T20:49:20.663Z,2.25
2022-08-31T20:51:48.699Z,4.75
2022-08-31T20:54:17.431Z,4.25
2022-08-31T20:56:45.604Z,5.25
2022-08-31T20:59:13.456Z,7.00
2022-08-31T21:01:41.371Z,7.00
2022-08-31T21:04:10.920Z,6.00
2022-08-31T21:06:39.198Z,4.00
2022-08-31T21:09:08.181Z,6.00
2022-08-31T21:11:40.639Z,7.00
2022-08-31T21:14:08.541Z,5.25
2022-08-31T21:16:36.429Z,6.25
2022-08-31T21:19:04.661Z,7.75
2022-08-31T21:21:33.873Z,5.25
2022-08-31T21:24:01.741Z,5.50
2022-08-31T21:26:29.659Z,6.50
2022-08-31T21:28:58.007Z,5.25
2022-08-31T21:31:28.876Z,7.00
2022-08-31T21:33:58.711Z,6.00
2022-08-31T21:36:26.769Z,6.50
2022-08-31T21:38:57.535Z,6.50
2022-08-31T21:41:26.702Z,6.00
2022-08-31T21:43:54.914Z,6.50
2022-08-31T21:46:23.721Z,4.00
2022-08-31T21:48:52.332Z,6.75
2022-08-31T21:51:21.485Z,6.50
2022-08-31T21:53:50.377Z,4.25
2022-08-31T21:56:19.918Z,6.75
2022-08-31T21:58:48.033Z,6.25
2022-08-31T22:01:18.682Z,7.50
2022-08-31T22:03:46.754Z,6.00
2022-08-31T22:06:15.353Z,6.75
2022-08-31T22:08:45.812Z,6.00
2022-08-31T22:11:15.000Z,4.00
2022-08-31T22:13:44.230Z,7.00
2022-08-31T22:16:18.811Z,5.50
2022-08-31T22:19:06.077Z,6.50
2022-08-31T22:21:35.035Z,6.00
2022-08-31T22:24:04.737Z,5.00
2022-08-31T22:26:34.545Z,8.00
2022-08-31T22:29:04.869Z,6.25
2022-08-31T22:31:36.730Z,6.00
2022-08-31T22:34:04.617Z,3.50
2022-08-31T22:36:32.877Z,6.00
2022-08-31T22:39:03.229Z,9.00
2022-08-31T22:41:31.956Z,7.00
2022-08-31T22:44:00.245Z,6.50
2022-08-31T22:46:29.566Z,7.25
2022-08-31T22:48:57.464Z,7.00
2022-08-31T22:51:25.362Z,6.00
2022-08-31T22:53:53.174Z,7.00
2022-08-31T22:56:22.306Z,11.00
2022-08-31T22:58:51.056Z,15.00
2022-08-31T23:01:19.861Z,15.00
2022-08-31T23:03:51.326Z,11.50
2022-08-31T23:06:20.177Z,14.00
2022-08-31T23:08:48.592Z,16.00
2022-08-31T23:11:19.332Z,13.50
2022-08-31T23:13:55.399Z,12.75
2022-08-31T23:16:25.105Z,16.00
2022-08-31T23:18:55.493Z,13.00
2022-08-31T23:21:24.866Z,8.50
2022-08-31T23:23:53.083Z,9.00
2022-08-31T23:26:24.921Z,11.50
2022-08-31T23:28:53.056Z,8.00
2022-08-31T23:31:21.525Z,10.50
2022-08-31T23:33:53.209Z,10.00
2022-08-31T23:36:26.114Z,8.00
2022-08-31T23:38:55.200Z,12.00
2022-08-31T23:41:25.900Z,15.25
2022-08-31T23:43:54.265Z,12.00
2022-08-31T23:46:23.832Z,13.75
2022-08-31T23:48:52.080Z,9.00
2022-08-31T23:51:20.299Z,6.00
2022-08-31T23:53:55.204Z,6.50
2022-08-31T23:56:32.182Z,6.50
2022-08-31T23:59:00.828Z,9.00
